sensor_id;sensor_type;location;lat;lon;timestamp;pressure;altitude;pressure_sealevel;temperature;humidity
76046;BME280;64741;41.730;44.788;2023-07-08T00:02:59;985.5;;;30;38.3
76046;BME280;64741;41.730;44.788;2023-07-08T00:07:51;985.5;;;30;38.3
76046;BME280;64741;41.730;44.788;2023-07-08T00:12:54;985.5;;;30;37.8
76046;BME280;64741;41.730;44.788;2023-07-08T00:18:05;985.6;;;29.9;37.4
76046;BME280;64741;41.730;44.788;2023-07-08T00:22:51;985.4;;;29.7;37.7
76046;BME280;64741;41.730;44.788;2023-07-08T00:27:53;985.3;;;29.8;37.9
76046;BME280;64741;41.730;44.788;2023-07-08T00:32:54;985.4;;;29.8;38.2
76046;BME280;64741;41.730;44.788;2023-07-08T00:37:53;985.4;;;29.8;38.3
76046;BME280;64741;41.730;44.788;2023-07-08T00:42:49;985.4;;;29.8;38.4
76046;BME280;64741;41.730;44.788;2023-07-08T00:47:53;985.4;;;29.9;38.3
76046;BME280;64741;41.730;44.788;2023-07-08T00:53:15;985.4;;;29.9;38.3
76046;BME280;64741;41.730;44.788;2023-07-08T00:57:55;985.4;;;29.9;38.3
76046;BME280;64741;41.730;44.788;2023-07-08T01:03:01;985.4;;;29.9;38.4
76046;BME280;64741;41.730;44.788;2023-07-08T01:07:54;985.4;;;29.9;38.3
76046;BME280;64741;41.730;44.788;2023-07-08T01:13:02;985.4;;;29.9;38.4
76046;BME280;64741;41.730;44.788;2023-07-08T01:17:51;985.4;;;29.9;38.3
76046;BME280;64741;41.730;44.788;2023-07-08T01:23:01;985.5;;;29.9;38.3
76046;BME280;64741;41.730;44.788;2023-07-08T01:27:52;985.5;;;29.9;37.9
76046;BME280;64741;41.730;44.788;2023-07-08T01:32:55;985.6;;;29.8;37.3
76046;BME280;64741;41.730;44.788;2023-07-08T01:37:50;985.5;;;29.7;37.5
76046;BME280;64741;41.730;44.788;2023-07-08T01:42:47;985.6;;;29.8;37.8
76046;BME280;64741;41.730;44.788;2023-07-08T01:47:53;985.8;;;29.7;37.3
76046;BME280;64741;41.730;44.788;2023-07-08T01:52:53;985.8;;;29.6;37.9
76046;BME280;64741;41.730;44.788;2023-07-08T01:57:43;985.9;;;29.7;38.3
76046;BME280;64741;41.730;44.788;2023-07-08T02:02:51;985.8;;;29.6;38.7
76046;BME280;64741;41.730;44.788;2023-07-08T02:07:59;986;;;29.6;38.7
76046;BME280;64741;41.730;44.788;2023-07-08T02:12:59;986;;;29.7;38.6
76046;BME280;64741;41.730;44.788;2023-07-08T02:17:47;986.1;;;29.7;38.6
76046;BME280;64741;41.730;44.788;2023-07-08T02:22:51;986.1;;;29.5;38.4
76046;BME280;64741;41.730;44.788;2023-07-08T02:27:53;986;;;29.6;38.8
76046;BME280;64741;41.730;44.788;2023-07-08T02:32:45;986;;;29.6;39
76046;BME280;64741;41.730;44.788;2023-07-08T02:37:52;986.1;;;29.6;39
76046;BME280;64741;41.730;44.788;2023-07-08T02:42:51;986.1;;;29.6;39
76046;BME280;64741;41.730;44.788;2023-07-08T02:48:02;986.1;;;29.6;39
76046;BME280;64741;41.730;44.788;2023-07-08T02:53:00;986.1;;;29.7;38.9
76046;BME280;64741;41.730;44.788;2023-07-08T02:57:51;986.1;;;29.7;38.8
76046;BME280;64741;41.730;44.788;2023-07-08T03:02:52;986.1;;;29.7;38.7
76046;BME280;64741;41.730;44.788;2023-07-08T03:07:51;986.1;;;29.7;38.7
76046;BME280;64741;41.730;44.788;2023-07-08T03:12:51;986;;;29.7;38.4
76046;BME280;64741;41.730;44.788;2023-07-08T03:17:51;986;;;29.7;38
76046;BME280;64741;41.730;44.788;2023-07-08T03:22:12;985.9;;;29.6;37.9
76046;BME280;64741;41.730;44.788;2023-07-08T03:27:36;985.8;;;29.6;38.1
76046;BME280;64741;41.730;44.788;2023-07-08T03:32:52;985.9;;;29.6;38.5
76046;BME280;64741;41.730;44.788;2023-07-08T03:37:50;985.9;;;29.7;39.1
76046;BME280;64741;41.730;44.788;2023-07-08T03:43:02;985.9;;;29.7;39.1
76046;BME280;64741;41.730;44.788;2023-07-08T03:47:30;985.8;;;29.6;39.1
76046;BME280;64741;41.730;44.788;2023-07-08T03:53:00;985.8;;;29.7;38.8
76046;BME280;64741;41.730;44.788;2023-07-08T03:57:48;985.7;;;29.6;38.5
76046;BME280;64741;41.730;44.788;2023-07-08T04:02:48;985.7;;;29.6;38.7
76046;BME280;64741;41.730;44.788;2023-07-08T04:07:48;985.8;;;29.6;38.9
76046;BME280;64741;41.730;44.788;2023-07-08T04:12:48;985.8;;;29.7;39
76046;BME280;64741;41.730;44.788;2023-07-08T04:17:52;985.8;;;29.6;39.3
76046;BME280;64741;41.730;44.788;2023-07-08T04:22:52;985.8;;;29.7;39.4
76046;BME280;64741;41.730;44.788;2023-07-08T04:28:02;985.9;;;29.7;39.4
76046;BME280;64741;41.730;44.788;2023-07-08T04:32:50;985.9;;;29.7;39.3
76046;BME280;64741;41.730;44.788;2023-07-08T04:37:52;985.8;;;29.6;39.5
76046;BME280;64741;41.730;44.788;2023-07-08T04:43:00;985.7;;;29.6;39.7
76046;BME280;64741;41.730;44.788;2023-07-08T04:47:48;985.6;;;29.7;39.9
76046;BME280;64741;41.730;44.788;2023-07-08T04:52:52;985.5;;;29.7;40.3
76046;BME280;64741;41.730;44.788;2023-07-08T04:57:50;985.4;;;29.7;40.3
76046;BME280;64741;41.730;44.788;2023-07-08T05:03:00;985.3;;;29.7;40.4
76046;BME280;64741;41.730;44.788;2023-07-08T05:07:52;985.4;;;29.8;40.8
76046;BME280;64741;41.730;44.788;2023-07-08T05:12:52;985.4;;;29.8;41
76046;BME280;64741;41.730;44.788;2023-07-08T05:17:49;985.3;;;29.8;40.9
76046;BME280;64741;41.730;44.788;2023-07-08T05:22:52;985.3;;;29.9;41
76046;BME280;64741;41.730;44.788;2023-07-08T05:28:02;985.2;;;29.9;41.1
76046;BME280;64741;41.730;44.788;2023-07-08T05:32:52;985.1;;;29.9;41.3
76046;BME280;64741;41.730;44.788;2023-07-08T05:38:00;985;;;29.9;41.3
76046;BME280;64741;41.730;44.788;2023-07-08T05:42:52;985;;;29.9;41.5
76046;BME280;64741;41.730;44.788;2023-07-08T05:48:02;985;;;29.9;41.3
76046;BME280;64741;41.730;44.788;2023-07-08T05:52:48;985;;;30;41.9
76046;BME280;64741;41.730;44.788;2023-07-08T05:57:52;984.9;;;30;42.5
76046;BME280;64741;41.730;44.788;2023-07-08T06:02:52;984.8;;;30;42.6
76046;BME280;64741;41.730;44.788;2023-07-08T06:07:48;984.7;;;30;42.1
76046;BME280;64741;41.730;44.788;2023-07-08T06:12:52;984.7;;;30;41.8
76046;BME280;64741;41.730;44.788;2023-07-08T06:17:54;984.7;;;30.1;41.6
76046;BME280;64741;41.730;44.788;2023-07-08T06:23:02;984.8;;;30;41.6
76046;BME280;64741;41.730;44.788;2023-07-08T06:27:52;984.8;;;30;41.6
76046;BME280;64741;41.730;44.788;2023-07-08T06:33:02;984.8;;;30;41.6
76046;BME280;64741;41.730;44.788;2023-07-08T06:38:00;984.7;;;30.1;41.5
76046;BME280;64741;41.730;44.788;2023-07-08T06:42:48;984.6;;;30;41.5
76046;BME280;64741;41.730;44.788;2023-07-08T06:47:52;984.6;;;30.1;40.9
76046;BME280;64741;41.730;44.788;2023-07-08T06:52:52;984.6;;;30.1;40.8
76046;BME280;64741;41.730;44.788;2023-07-08T06:58:00;984.5;;;30.1;40.1
76046;BME280;64741;41.730;44.788;2023-07-08T07:02:44;984.4;;;30.1;39.5
76046;BME280;64741;41.730;44.788;2023-07-08T07:07:52;984.3;;;30.2;39.1
76046;BME280;64741;41.730;44.788;2023-07-08T07:12:44;984.3;;;30.2;39.5
76046;BME280;64741;41.730;44.788;2023-07-08T07:17:42;984.2;;;30.2;39.3
76046;BME280;64741;41.730;44.788;2023-07-08T07:22:52;984.1;;;30.2;39.2
76046;BME280;64741;41.730;44.788;2023-07-08T07:27:52;984;;;30.2;38.8
76046;BME280;64741;41.730;44.788;2023-07-08T07:32:52;984;;;30.3;37.2
76046;BME280;64741;41.730;44.788;2023-07-08T07:37:44;983.9;;;30.3;37.7
76046;BME280;64741;41.730;44.788;2023-07-08T07:42:52;983.9;;;30.3;37
76046;BME280;64741;41.730;44.788;2023-07-08T07:47:46;983.8;;;30.3;36.5
76046;BME280;64741;41.730;44.788;2023-07-08T07:52:52;983.7;;;30.3;35.9
76046;BME280;64741;41.730;44.788;2023-07-08T07:57:52;983.7;;;30.3;37.1
76046;BME280;64741;41.730;44.788;2023-07-08T08:02:48;983.6;;;30.3;37
76046;BME280;64741;41.730;44.788;2023-07-08T08:08:00;983.5;;;30.3;35.9
76046;BME280;64741;41.730;44.788;2023-07-08T08:12:52;983.5;;;30.3;36.2
76046;BME280;64741;41.730;44.788;2023-07-08T08:18:00;983.6;;;30.3;36.1
76046;BME280;64741;41.730;44.788;2023-07-08T08:22:48;983.7;;;30.3;35.6
76046;BME280;64741;41.730;44.788;2023-07-08T08:27:48;983.6;;;30.3;35.2
76046;BME280;64741;41.730;44.788;2023-07-08T08:32:48;983.5;;;30.3;35
76046;BME280;64741;41.730;44.788;2023-07-08T08:37:48;983.4;;;30.3;34.8
76046;BME280;64741;41.730;44.788;2023-07-08T08:42:53;983.2;;;30.3;34.8
76046;BME280;64741;41.730;44.788;2023-07-08T08:47:53;983.2;;;30.3;34.6
76046;BME280;64741;41.730;44.788;2023-07-08T08:52:58;983.1;;;30.3;34.8
76046;BME280;64741;41.730;44.788;2023-07-08T08:57:48;983.1;;;30.4;34.9
76046;BME280;64741;41.730;44.788;2023-07-08T09:02:08;983.1;;;30.4;34.7
76046;BME280;64741;41.730;44.788;2023-07-08T09:08:02;983;;;30.4;34.5
76046;BME280;64741;41.730;44.788;2023-07-08T09:12:38;982.9;;;30.4;34.1
76046;BME280;64741;41.730;44.788;2023-07-08T09:17:52;982.8;;;30.5;33.8
76046;BME280;64741;41.730;44.788;2023-07-08T09:22:49;982.7;;;30.5;33.9
76046;BME280;64741;41.730;44.788;2023-07-08T09:28:00;982.8;;;30.5;34.1
76046;BME280;64741;41.730;44.788;2023-07-08T09:32:52;982.7;;;30.5;34.5
76046;BME280;64741;41.730;44.788;2023-07-08T09:37:52;982.7;;;30.5;34.7
76046;BME280;64741;41.730;44.788;2023-07-08T09:42:48;982.8;;;30.6;34.6
76046;BME280;64741;41.730;44.788;2023-07-08T09:47:52;982.8;;;30.6;34.7
76046;BME280;64741;41.730;44.788;2023-07-08T09:52:58;982.7;;;30.6;34.6
76046;BME280;64741;41.730;44.788;2023-07-08T09:57:50;982.6;;;30.6;34.6
76046;BME280;64741;41.730;44.788;2023-07-08T10:02:58;982.6;;;30.6;34.8
76046;BME280;64741;41.730;44.788;2023-07-08T10:07:51;982.8;;;30.6;35.1
76046;BME280;64741;41.730;44.788;2023-07-08T10:13:01;982.8;;;30.6;36.2
76046;BME280;64741;41.730;44.788;2023-07-08T10:17:48;982.9;;;30.6;38.5
76046;BME280;64741;41.730;44.788;2023-07-08T10:22:55;982.8;;;30.6;37.7
76046;BME280;64741;41.730;44.788;2023-07-08T10:27:53;982.8;;;30.5;38.9
76046;BME280;64741;41.730;44.788;2023-07-08T10:32:53;982.7;;;30.6;39.5
76046;BME280;64741;41.730;44.788;2023-07-08T10:37:56;982.7;;;30.6;39
76046;BME280;64741;41.730;44.788;2023-07-08T10:42:56;982.5;;;30.6;38.3
76046;BME280;64741;41.730;44.788;2023-07-08T10:48:03;982.4;;;30.6;38.1
76046;BME280;64741;41.730;44.788;2023-07-08T10:52:55;982.3;;;30.6;38.1
76046;BME280;64741;41.730;44.788;2023-07-08T10:58:07;982.2;;;30.6;38
76046;BME280;64741;41.730;44.788;2023-07-08T11:03:05;982.2;;;30.6;37.6
76046;BME280;64741;41.730;44.788;2023-07-08T11:07:50;982.1;;;30.6;37.7
76046;BME280;64741;41.730;44.788;2023-07-08T11:13:00;982.1;;;30.6;37.9
76046;BME280;64741;41.730;44.788;2023-07-08T11:17:53;982.1;;;30.6;37.6
76046;BME280;64741;41.730;44.788;2023-07-08T11:23:00;982;;;30.6;37.3
76046;BME280;64741;41.730;44.788;2023-07-08T11:27:54;981.9;;;30.6;36.8
76046;BME280;64741;41.730;44.788;2023-07-08T11:32:36;981.9;;;30.6;36.7
76046;BME280;64741;41.730;44.788;2023-07-08T11:38:00;981.8;;;30.7;36.9
76046;BME280;64741;41.730;44.788;2023-07-08T11:42:19;981.7;;;30.7;37.3
76046;BME280;64741;41.730;44.788;2023-07-08T11:47:52;981.6;;;30.7;38.9
76046;BME280;64741;41.730;44.788;2023-07-08T11:52:53;981.6;;;30.8;39.6
76046;BME280;64741;41.730;44.788;2023-07-08T11:57:52;981.5;;;30.8;39.5
76046;BME280;64741;41.730;44.788;2023-07-08T12:02:53;981.4;;;30.8;39.5
76046;BME280;64741;41.730;44.788;2023-07-08T12:07:54;981.3;;;30.8;39.5
76046;BME280;64741;41.730;44.788;2023-07-08T12:12:48;981.3;;;30.8;39
76046;BME280;64741;41.730;44.788;2023-07-08T12:17:53;981.1;;;30.8;38.2
76046;BME280;64741;41.730;44.788;2023-07-08T12:22:52;981;;;30.8;38
76046;BME280;64741;41.730;44.788;2023-07-08T12:27:48;981;;;30.8;37.2
76046;BME280;64741;41.730;44.788;2023-07-08T12:32:58;980.9;;;30.8;36.9
76046;BME280;64741;41.730;44.788;2023-07-08T12:37:50;980.9;;;30.8;36.5
76046;BME280;64741;41.730;44.788;2023-07-08T12:43:00;980.9;;;30.8;36
76046;BME280;64741;41.730;44.788;2023-07-08T12:47:48;980.8;;;30.8;35.9
76046;BME280;64741;41.730;44.788;2023-07-08T12:52:48;980.8;;;30.8;36.1
76046;BME280;64741;41.730;44.788;2023-07-08T12:57:49;980.8;;;30.8;36.4
76046;BME280;64741;41.730;44.788;2023-07-08T13:02:48;980.8;;;30.8;36.3
76046;BME280;64741;41.730;44.788;2023-07-08T13:07:50;980.8;;;30.8;36.1
76046;BME280;64741;41.730;44.788;2023-07-08T13:12:53;980.7;;;30.8;36.2
76046;BME280;64741;41.730;44.788;2023-07-08T13:17:52;980.7;;;30.8;36
76046;BME280;64741;41.730;44.788;2023-07-08T13:22:54;980.7;;;30.8;36
76046;BME280;64741;41.730;44.788;2023-07-08T13:27:56;980.8;;;30.8;35.9
76046;BME280;64741;41.730;44.788;2023-07-08T13:33:02;980.8;;;30.8;35.8
76046;BME280;64741;41.730;44.788;2023-07-08T13:38:00;980.9;;;30.8;35.9
76046;BME280;64741;41.730;44.788;2023-07-08T13:42:52;981;;;30.8;35.9
76046;BME280;64741;41.730;44.788;2023-07-08T13:47:32;981.1;;;30.8;36.6
76046;BME280;64741;41.730;44.788;2023-07-08T13:53:00;981.2;;;30.8;37.1
76046;BME280;64741;41.730;44.788;2023-07-08T13:57:55;981.3;;;30.9;37.3
76046;BME280;64741;41.730;44.788;2023-07-08T14:02:52;981.4;;;30.9;36.9
76046;BME280;64741;41.730;44.788;2023-07-08T14:07:48;981.3;;;30.9;36.6
76046;BME280;64741;41.730;44.788;2023-07-08T14:12:52;981.2;;;30.9;36.2
76046;BME280;64741;41.730;44.788;2023-07-08T14:18:00;981.3;;;30.9;36
76046;BME280;64741;41.730;44.788;2023-07-08T14:22:52;981.3;;;30.8;36
76046;BME280;64741;41.730;44.788;2023-07-08T14:28:00;981.3;;;30.9;36
76046;BME280;64741;41.730;44.788;2023-07-08T14:32:52;981.4;;;30.9;36
76046;BME280;64741;41.730;44.788;2023-07-08T14:38:00;981.6;;;30.9;36
76046;BME280;64741;41.730;44.788;2023-07-08T14:42:48;981.7;;;30.9;35.9
76046;BME280;64741;41.730;44.788;2023-07-08T14:47:52;981.8;;;30.8;35.8
76046;BME280;64741;41.730;44.788;2023-07-08T14:52:52;981.9;;;30.9;35.9
76046;BME280;64741;41.730;44.788;2023-07-08T14:57:48;982;;;30.9;35.8
76046;BME280;64741;41.730;44.788;2023-07-08T15:02:52;982;;;30.9;35.6
76046;BME280;64741;41.730;44.788;2023-07-08T15:07:49;981.9;;;30.9;35.5
76046;BME280;64741;41.730;44.788;2023-07-08T15:12:44;981.9;;;30.8;35.5
76046;BME280;64741;41.730;44.788;2023-07-08T15:17:52;981.9;;;30.8;35.8
76046;BME280;64741;41.730;44.788;2023-07-08T15:23:00;982;;;30.8;36.7
76046;BME280;64741;41.730;44.788;2023-07-08T15:27:42;981.7;;;30.8;37.4
76046;BME280;64741;41.730;44.788;2023-07-08T15:32:48;981.4;;;30.8;37.6
76046;BME280;64741;41.730;44.788;2023-07-08T15:37:52;981.1;;;30.8;37.6
76046;BME280;64741;41.730;44.788;2023-07-08T15:42:53;981.2;;;30.8;38
76046;BME280;64741;41.730;44.788;2023-07-08T15:48:00;981.6;;;30.8;38.3
76046;BME280;64741;41.730;44.788;2023-07-08T15:52:50;981.8;;;30.8;38.9
76046;BME280;64741;41.730;44.788;2023-07-08T15:57:52;981.9;;;30.7;39.2
76046;BME280;64741;41.730;44.788;2023-07-08T16:02:42;982;;;30.7;39.3
76046;BME280;64741;41.730;44.788;2023-07-08T16:08:00;982.2;;;30.7;39.3
76046;BME280;64741;41.730;44.788;2023-07-08T16:12:52;982.3;;;30.6;39.3
76046;BME280;64741;41.730;44.788;2023-07-08T16:17:52;982.4;;;30.6;39.4
76046;BME280;64741;41.730;44.788;2023-07-08T16:22:52;982.7;;;30.6;39.9
76046;BME280;64741;41.730;44.788;2023-07-08T16:27:52;982.9;;;30.5;40.2
76046;BME280;64741;41.730;44.788;2023-07-08T16:32:52;983.1;;;30.5;40.3
76046;BME280;64741;41.730;44.788;2023-07-08T16:37:18;983.4;;;30.5;40.5
76046;BME280;64741;41.730;44.788;2023-07-08T16:42:53;983.6;;;30.5;41
76046;BME280;64741;41.730;44.788;2023-07-08T16:47:53;983.9;;;30.5;41.1
76046;BME280;64741;41.730;44.788;2023-07-08T16:52:48;984;;;30.5;41.2
76046;BME280;64741;41.730;44.788;2023-07-08T16:58:00;984.2;;;30.4;41.4
76046;BME280;64741;41.730;44.788;2023-07-08T17:02:52;984.5;;;30.4;41.6
76046;BME280;64741;41.730;44.788;2023-07-08T17:08:00;984.8;;;30.4;42.3
76046;BME280;64741;41.730;44.788;2023-07-08T17:12:50;985.2;;;30.4;42.5
76046;BME280;64741;41.730;44.788;2023-07-08T17:17:51;985.4;;;30.4;42.9
76046;BME280;64741;41.730;44.788;2023-07-08T17:23:00;985.4;;;30.4;43.6
76046;BME280;64741;41.730;44.788;2023-07-08T17:27:50;985.5;;;30.4;43.5
76046;BME280;64741;41.730;44.788;2023-07-08T17:32:52;985.5;;;30.4;43.3
76046;BME280;64741;41.730;44.788;2023-07-08T17:37:50;985.3;;;30.4;43.4
76046;BME280;64741;41.730;44.788;2023-07-08T17:42:53;985.5;;;30.4;43.5
76046;BME280;64741;41.730;44.788;2023-07-08T17:47:48;985.8;;;30.4;43.6
76046;BME280;64741;41.730;44.788;2023-07-08T17:52:54;985.6;;;30.4;44.1
76046;BME280;64741;41.730;44.788;2023-07-08T17:58:00;985.4;;;30.3;43.8
76046;BME280;64741;41.730;44.788;2023-07-08T18:02:58;985.8;;;30.4;43.8
76046;BME280;64741;41.730;44.788;2023-07-08T18:07:53;985.8;;;30.4;44.1
76046;BME280;64741;41.730;44.788;2023-07-08T18:12:49;985.7;;;30.4;44.5
76046;BME280;64741;41.730;44.788;2023-07-08T18:18:01;985.8;;;30.3;44.7
76046;BME280;64741;41.730;44.788;2023-07-08T18:22:52;985.9;;;30.3;44.9
76046;BME280;64741;41.730;44.788;2023-07-08T18:27:32;985.7;;;30.3;45.1
76046;BME280;64741;41.730;44.788;2023-07-08T18:32:38;985.6;;;30.3;45.2
76046;BME280;64741;41.730;44.788;2023-07-08T18:37:38;985.4;;;30.3;45.2
76046;BME280;64741;41.730;44.788;2023-07-08T18:42:47;984.8;;;30.3;45.4
76046;BME280;64741;41.730;44.788;2023-07-08T18:47:52;983.4;;;30.3;45.1
76046;BME280;64741;41.730;44.788;2023-07-08T18:53:00;982.7;;;30.3;44.5
76046;BME280;64741;41.730;44.788;2023-07-08T18:57:52;984.1;;;30.3;44.4
76046;BME280;64741;41.730;44.788;2023-07-08T19:03:00;984.6;;;30.3;44.9
76046;BME280;64741;41.730;44.788;2023-07-08T19:07:48;984.9;;;30.3;44.8
76046;BME280;64741;41.730;44.788;2023-07-08T19:12:52;985.4;;;30.3;44.7
76046;BME280;64741;41.730;44.788;2023-07-08T19:17:50;985.4;;;30.4;44.7
76046;BME280;64741;41.730;44.788;2023-07-08T19:22:49;985;;;30.3;45
76046;BME280;64741;41.730;44.788;2023-07-08T19:27:52;985;;;30.3;44.8
76046;BME280;64741;41.730;44.788;2023-07-08T19:32:55;985;;;30.3;44.9
76046;BME280;64741;41.730;44.788;2023-07-08T19:38:02;985;;;30.3;45.1
76046;BME280;64741;41.730;44.788;2023-07-08T19:42:51;984.7;;;30.3;45.1
76046;BME280;64741;41.730;44.788;2023-07-08T19:47:58;984.6;;;30.3;44.9
76046;BME280;64741;41.730;44.788;2023-07-08T19:53:00;984.7;;;30.4;44.9
76046;BME280;64741;41.730;44.788;2023-07-08T19:57:49;984.7;;;30.4;44.9
76046;BME280;64741;41.730;44.788;2023-07-08T20:02:53;984.8;;;30.4;44.7
76046;BME280;64741;41.730;44.788;2023-07-08T20:07:55;984.8;;;30.4;44.6
76046;BME280;64741;41.730;44.788;2023-07-08T20:13:00;984.7;;;30.4;44.2
76046;BME280;64741;41.730;44.788;2023-07-08T20:17:54;984.6;;;30.4;44.6
76046;BME280;64741;41.730;44.788;2023-07-08T20:22:52;984.6;;;30.2;45.3
76046;BME280;64741;41.730;44.788;2023-07-08T20:28:02;984.5;;;29.9;45.5
76046;BME280;64741;41.730;44.788;2023-07-08T20:33:00;984.3;;;29.7;45.9
76046;BME280;64741;41.730;44.788;2023-07-08T20:37:53;984.2;;;29.6;46.3
76046;BME280;64741;41.730;44.788;2023-07-08T20:42:38;984.1;;;29.4;46.6
76046;BME280;64741;41.730;44.788;2023-07-08T20:47:52;984.1;;;29.2;47.4
76046;BME280;64741;41.730;44.788;2023-07-08T20:52:52;984;;;29.1;47.9
76046;BME280;64741;41.730;44.788;2023-07-08T20:57:22;983.8;;;29.1;48.5
76046;BME280;64741;41.730;44.788;2023-07-08T21:02:51;983.8;;;29;48.6
76046;BME280;64741;41.730;44.788;2023-07-08T21:07:55;983.7;;;29.1;48.6
76046;BME280;64741;41.730;44.788;2023-07-08T21:12:53;983.6;;;29;48.4
76046;BME280;64741;41.730;44.788;2023-07-08T21:17:48;983.5;;;29;48.1
76046;BME280;64741;41.730;44.788;2023-07-08T21:23:05;983.5;;;29;48.3
76046;BME280;64741;41.730;44.788;2023-07-08T21:27:52;983.5;;;28.9;48.2
76046;BME280;64741;41.730;44.788;2023-07-08T21:33:02;983.5;;;28.9;48
76046;BME280;64741;41.730;44.788;2023-07-08T21:37:49;983.4;;;28.9;47.5
76046;BME280;64741;41.730;44.788;2023-07-08T21:42:52;983.3;;;28.9;47.7
76046;BME280;64741;41.730;44.788;2023-07-08T21:47:40;983.3;;;28.9;47.8
76046;BME280;64741;41.730;44.788;2023-07-08T21:52:46;983.3;;;29;47.5
76046;BME280;64741;41.730;44.788;2023-07-08T21:57:52;983.3;;;29.1;47.8
76046;BME280;64741;41.730;44.788;2023-07-08T22:02:54;983.2;;;29.1;47.3
76046;BME280;64741;41.730;44.788;2023-07-08T22:07:52;983.2;;;29.2;46.7
76046;BME280;64741;41.730;44.788;2023-07-08T22:12:48;983.1;;;29.2;46.5
76046;BME280;64741;41.730;44.788;2023-07-08T22:17:55;983;;;29.2;45.7
76046;BME280;64741;41.730;44.788;2023-07-08T22:23:02;982.9;;;29.2;45.5
76046;BME280;64741;41.730;44.788;2023-07-08T22:27:58;982.9;;;29.3;45.4
76046;BME280;64741;41.730;44.788;2023-07-08T22:32:52;982.9;;;29.3;45.6
76046;BME280;64741;41.730;44.788;2023-07-08T22:37:50;982.9;;;29.4;45.7
76046;BME280;64741;41.730;44.788;2023-07-08T22:43:02;982.8;;;29.4;45.3
76046;BME280;64741;41.730;44.788;2023-07-08T22:47:52;982.8;;;29.4;45.3
76046;BME280;64741;41.730;44.788;2023-07-08T22:52:52;982.7;;;29.4;45.6
76046;BME280;64741;41.730;44.788;2023-07-08T22:57:49;982.6;;;29.2;45.6
76046;BME280;64741;41.730;44.788;2023-07-08T23:02:52;982.6;;;29.3;45.5
76046;BME280;64741;41.730;44.788;2023-07-08T23:08:00;982.6;;;29.3;45.9
76046;BME280;64741;41.730;44.788;2023-07-08T23:12:52;982.6;;;29.3;46.3
76046;BME280;64741;41.730;44.788;2023-07-08T23:18:00;982.5;;;29.3;46.3
76046;BME280;64741;41.730;44.788;2023-07-08T23:22:52;982.5;;;29.3;45.9
76046;BME280;64741;41.730;44.788;2023-07-08T23:28:02;982.5;;;29.3;45.8
76046;BME280;64741;41.730;44.788;2023-07-08T23:32:46;982.4;;;29.3;45.3
76046;BME280;64741;41.730;44.788;2023-07-08T23:37:54;982.4;;;29.2;45.4
76046;BME280;64741;41.730;44.788;2023-07-08T23:42:52;982.4;;;29.2;45.2
76046;BME280;64741;41.730;44.788;2023-07-08T23:47:48;982.3;;;29.2;45.2
76046;BME280;64741;41.730;44.788;2023-07-08T23:52:52;982.2;;;29.2;45.7
76046;BME280;64741;41.730;44.788;2023-07-08T23:57:52;982.2;;;29.1;45.7
